createdAt,value
2022-08-17T00:00:34.437Z,9.25
2022-08-17T00:03:18.367Z,8.38
2022-08-17T00:05:56.665Z,8.70
2022-08-17T00:08:31.072Z,8.80
2022-08-17T00:10:59.201Z,8.45
2022-08-17T00:13:36.919Z,8.00
2022-08-17T00:16:14.532Z,8.60
2022-08-17T00:19:01.925Z,9.13
2022-08-17T00:21:49.179Z,8.63
2022-08-17T00:24:18.757Z,8.80
2022-08-17T00:26:47.274Z,8.60
2022-08-17T00:29:19.415Z,9.38
2022-08-17T00:31:48.397Z,8.52
2022-08-17T00:34:15.877Z,8.75
2022-08-17T00:36:43.128Z,8.85
2022-08-17T00:39:10.311Z,9.00
2022-08-17T00:41:37.727Z,8.52
2022-08-17T00:44:12.113Z,8.95
2022-08-17T00:46:42.381Z,9.02
2022-08-17T00:49:12.254Z,8.40
2022-08-17T00:51:46.650Z,8.38
2022-08-17T00:54:23.144Z,8.65
2022-08-17T00:56:57.461Z,8.63
2022-08-17T00:59:32.805Z,8.73
2022-08-17T01:02:00.955Z,8.52
2022-08-17T01:04:30.505Z,8.40
2022-08-17T01:06:58.680Z,9.15
2022-08-17T01:09:26.599Z,8.20
2022-08-17T01:11:54.169Z,8.60
2022-08-17T01:14:26.910Z,8.32
2022-08-17T01:16:56.568Z,8.88
2022-08-17T01:19:29.289Z,8.68
2022-08-17T01:22:11.794Z,8.23
2022-08-17T01:24:44.206Z,9.15
2022-08-17T01:27:14.926Z,8.82
2022-08-17T01:29:52.036Z,8.95
2022-08-17T01:32:20.024Z,8.70
2022-08-17T01:34:50.230Z,8.60
2022-08-17T01:37:21.275Z,8.75
2022-08-17T01:39:54.971Z,8.23
2022-08-17T01:42:52.563Z,8.73
2022-08-17T01:45:25.860Z,8.32
2022-08-17T01:47:54.992Z,8.38
2022-08-17T01:50:30.744Z,8.60
2022-08-17T01:53:09.340Z,8.27
2022-08-17T01:55:48.176Z,8.32
2022-08-17T01:58:15.837Z,8.73
2022-08-17T02:00:59.609Z,8.85
2022-08-17T02:03:29.992Z,9.68
2022-08-17T02:05:57.987Z,19.88
2022-08-17T02:08:37.105Z,22.05
2022-08-17T02:11:15.859Z,10.45
2022-08-17T02:13:45.348Z,12.38
2022-08-17T02:16:13.391Z,9.15
2022-08-17T02:18:41.498Z,9.27
2022-08-17T02:21:10.214Z,8.57
2022-08-17T02:23:42.444Z,8.52
2022-08-17T02:26:09.783Z,10.10
2022-08-17T02:28:53.704Z,9.02
2022-08-17T02:31:21.401Z,9.50
2022-08-17T02:34:04.005Z,9.00
2022-08-17T02:36:33.862Z,9.63
2022-08-17T02:39:07.621Z,9.15
2022-08-17T02:41:34.909Z,9.93
2022-08-17T02:44:02.431Z,8.98
2022-08-17T02:46:31.125Z,8.88
2022-08-17T02:48:59.607Z,9.48
2022-08-17T02:51:27.786Z,9.15
2022-08-17T02:54:05.344Z,9.15
2022-08-17T02:56:42.825Z,8.77
2022-08-17T02:59:10.089Z,9.40
2022-08-17T03:01:37.497Z,9.57
2022-08-17T03:04:05.149Z,9.15
2022-08-17T03:06:32.550Z,10.38
2022-08-17T03:08:59.829Z,9.27
2022-08-17T03:11:27.265Z,8.85
2022-08-17T03:13:54.775Z,8.95
2022-08-17T03:16:22.089Z,9.38
2022-08-17T03:18:49.371Z,9.52
2022-08-17T03:21:16.755Z,10.10
2022-08-17T03:23:44.006Z,10.60
2022-08-17T03:26:15.592Z,9.73
2022-08-17T03:28:43.604Z,9.60
2022-08-17T03:31:11.017Z,9.80
2022-08-17T03:33:38.329Z,9.65
2022-08-17T03:36:06.991Z,8.77
2022-08-17T03:38:38.883Z,9.20
2022-08-17T03:41:07.494Z,9.98
2022-08-17T03:43:34.897Z,9.05
2022-08-17T03:46:28.979Z,9.32
2022-08-17T03:49:26.430Z,9.50
2022-08-17T03:52:16.442Z,9.40
2022-08-17T03:55:14.696Z,10.38
2022-08-17T03:57:42.074Z,9.18
2022-08-17T04:00:10.018Z,8.88
2022-08-17T04:02:37.350Z,8.90
2022-08-17T04:05:05.054Z,9.25
2022-08-17T04:07:32.403Z,9.63
2022-08-17T04:10:00.163Z,10.52
2022-08-17T04:12:31.173Z,11.88
2022-08-17T04:14:59.142Z,13.18
2022-08-17T04:17:28.993Z,13.85
2022-08-17T04:19:56.961Z,12.75
2022-08-17T04:22:31.130Z,13.05
2022-08-17T04:25:05.015Z,15.65
2022-08-17T04:27:32.443Z,12.60
2022-08-17T04:29:59.809Z,14.35
2022-08-17T04:32:58.586Z,13.80
2022-08-17T04:35:21.732Z,13.50
2022-08-17T04:37:49.284Z,13.90
2022-08-17T04:40:37.508Z,13.05
2022-08-17T04:43:14.609Z,12.98
2022-08-17T04:45:51.312Z,13.82
2022-08-17T04:48:32.208Z,11.88
2022-08-17T04:51:11.002Z,13.50
2022-08-17T04:53:40.850Z,11.70
2022-08-17T04:56:11.719Z,12.27
2022-08-17T04:58:50.396Z,12.73
2022-08-17T05:01:23.793Z,13.77
2022-08-17T05:06:20.998Z,14.05
2022-08-17T05:08:48.242Z,12.35
2022-08-17T05:11:15.991Z,12.55
2022-08-17T05:13:43.628Z,12.90
2022-08-17T05:16:11.880Z,12.88
2022-08-17T05:18:39.289Z,12.15
2022-08-17T05:21:07.809Z,12.13
2022-08-17T05:23:43.111Z,12.25
2022-08-17T05:26:25.452Z,12.85
2022-08-17T05:28:55.533Z,12.25
2022-08-17T05:31:25.423Z,14.07
2022-08-17T05:33:53.401Z,13.02
2022-08-17T05:36:42.300Z,11.82
2022-08-17T05:39:08.536Z,13.25
2022-08-17T05:41:42.958Z,12.98
2022-08-17T05:44:10.222Z,12.70
2022-08-17T05:46:44.038Z,12.50
2022-08-17T05:49:15.696Z,12.80
2022-08-17T05:52:13.872Z,13.02
2022-08-17T05:54:55.669Z,12.23
2022-08-17T05:57:54.075Z,12.52
2022-08-17T06:00:30.240Z,12.52
2022-08-17T06:03:41.799Z,12.80
2022-08-17T06:06:41.048Z,12.75
2022-08-17T06:09:11.013Z,13.13
2022-08-17T06:11:53.559Z,12.90
2022-08-17T06:14:52.338Z,12.75
2022-08-17T06:17:24.073Z,12.98
2022-08-17T06:19:59.839Z,12.82
2022-08-17T06:22:33.973Z,13.40
2022-08-17T06:25:10.229Z,13.35
2022-08-17T06:27:53.847Z,13.38
2022-08-17T06:30:36.739Z,12.95
2022-08-17T06:33:37.785Z,13.60
2022-08-17T06:36:29.430Z,13.27
2022-08-17T06:39:33.011Z,13.45
2022-08-17T06:42:54.882Z,13.20
2022-08-17T06:45:22.828Z,13.98
2022-08-17T06:48:14.159Z,12.38
2022-08-17T06:53:48.946Z,12.00
2022-08-17T06:56:54.320Z,12.30
2022-08-17T06:59:55.025Z,13.25
2022-08-17T07:02:53.291Z,13.70
2022-08-17T07:05:27.269Z,13.15
2022-08-17T07:10:57.724Z,13.75
2022-08-17T07:14:04.874Z,12.13
2022-08-17T07:16:41.212Z,13.00
2022-08-17T07:19:10.905Z,12.88
2022-08-17T07:22:09.104Z,12.55
2022-08-17T07:24:59.706Z,13.15
2022-08-17T07:27:32.950Z,11.93
2022-08-17T07:30:10.967Z,12.60
2022-08-17T07:33:09.171Z,12.07
2022-08-17T07:35:48.264Z,12.10
2022-08-17T07:38:24.857Z,11.77
2022-08-17T07:41:03.261Z,12.50
2022-08-17T07:43:39.635Z,11.70
2022-08-17T07:46:51.602Z,12.38
2022-08-17T07:49:36.088Z,11.95
2022-08-17T07:52:50.594Z,11.80
2022-08-17T07:55:35.471Z,12.25
2022-08-17T07:58:03.708Z,11.43
2022-08-17T08:00:33.010Z,12.25
2022-08-17T08:03:34.380Z,11.50
2022-08-17T08:06:03.650Z,12.57
2022-08-17T08:08:38.184Z,11.63
2022-08-17T08:11:12.323Z,11.18
2022-08-17T08:13:45.129Z,11.13
2022-08-17T08:16:24.555Z,11.85
2022-08-17T08:19:02.555Z,11.32
2022-08-17T08:21:56.480Z,11.15
2022-08-17T08:24:37.064Z,10.55
2022-08-17T08:27:55.363Z,11.10
2022-08-17T08:30:23.628Z,11.77
2022-08-17T08:33:41.327Z,11.48
2022-08-17T08:37:14.545Z,10.75
2022-08-17T08:39:47.497Z,11.82
2022-08-17T08:43:04.940Z,12.35
2022-08-17T08:46:09.789Z,12.32
2022-08-17T08:49:11.962Z,10.93
2022-08-17T08:51:52.497Z,11.30
2022-08-17T08:55:05.341Z,11.25
2022-08-17T08:57:40.975Z,10.90
2022-08-17T09:00:17.533Z,13.20
2022-08-17T09:03:52.688Z,11.35
2022-08-17T09:06:51.285Z,10.50
2022-08-17T09:10:27.079Z,10.20
2022-08-17T09:13:54.391Z,10.35
2022-08-17T09:16:58.197Z,11.10
2022-08-17T09:19:49.331Z,11.23
2022-08-17T09:22:36.120Z,11.13
2022-08-17T09:25:28.482Z,9.60
2022-08-17T09:28:08.474Z,10.38
2022-08-17T09:30:47.555Z,10.05
2022-08-17T09:33:26.188Z,10.43
2022-08-17T09:35:57.686Z,9.80
2022-08-17T09:38:49.168Z,9.52
2022-08-17T09:41:38.952Z,9.70
2022-08-17T09:44:23.724Z,10.02
2022-08-17T09:47:25.725Z,10.20
2022-08-17T09:53:03.253Z,9.65
2022-08-17T09:55:51.912Z,9.07
2022-08-17T09:58:29.464Z,9.32
2022-08-17T10:01:33.336Z,9.75
2022-08-17T10:04:29.638Z,9.45
2022-08-17T10:07:15.793Z,9.85
2022-08-17T10:10:04.513Z,8.70
2022-08-17T10:12:53.311Z,9.40
2022-08-17T10:16:12.310Z,8.23
2022-08-17T10:18:47.557Z,9.45
2022-08-17T10:21:36.451Z,9.77
2022-08-17T10:25:21.638Z,9.48
2022-08-17T10:27:58.097Z,9.30
2022-08-17T10:30:29.195Z,9.13
2022-08-17T10:33:03.572Z,9.93
2022-08-17T10:35:49.644Z,9.50
2022-08-17T10:38:25.605Z,8.65
2022-08-17T10:41:27.156Z,9.10
2022-08-17T10:44:37.031Z,8.60
2022-08-17T10:47:08.608Z,8.00
2022-08-17T10:49:39.548Z,8.48
2022-08-17T10:52:28.154Z,7.88
2022-08-17T10:54:58.088Z,8.52
2022-08-17T10:57:34.477Z,8.65
2022-08-17T11:00:37.830Z,8.60
2022-08-17T11:03:20.572Z,8.98
2022-08-17T11:06:38.934Z,8.70
2022-08-17T11:09:23.185Z,8.77
2022-08-17T11:12:15.005Z,8.98
2022-08-17T11:15:14.834Z,8.50
2022-08-17T11:18:42.837Z,8.63
2022-08-17T11:21:47.667Z,8.30
2022-08-17T11:24:30.596Z,7.82
2022-08-17T11:27:30.181Z,8.47
2022-08-17T11:30:13.390Z,8.40
2022-08-17T11:32:54.811Z,7.30
2022-08-17T11:35:22.448Z,8.43
2022-08-17T11:38:28.558Z,8.05
2022-08-17T11:41:10.820Z,8.50
2022-08-17T11:43:43.476Z,7.80
2022-08-17T11:47:00.854Z,8.40
2022-08-17T11:50:10.990Z,7.85
2022-08-17T11:52:48.910Z,7.88
2022-08-17T11:55:38.429Z,7.78
2022-08-17T11:58:16.349Z,8.30
2022-08-17T12:00:46.647Z,7.72
2022-08-17T12:03:26.266Z,7.28
2022-08-17T12:06:04.882Z,7.80
2022-08-17T12:08:34.724Z,8.00
2022-08-17T12:11:19.013Z,7.53
2022-08-17T12:14:07.882Z,7.22
2022-08-17T12:16:35.345Z,8.57
2022-08-17T12:19:05.291Z,8.13
2022-08-17T12:22:33.396Z,8.10
2022-08-17T12:25:20.313Z,6.90
2022-08-17T12:28:04.766Z,7.13
2022-08-17T12:30:34.781Z,6.55
2022-08-17T12:33:02.655Z,7.10
2022-08-17T12:35:39.072Z,7.78
2022-08-17T12:38:26.878Z,7.82
2022-08-17T12:40:59.839Z,7.50
2022-08-17T12:43:32.975Z,7.50
2022-08-17T12:46:15.143Z,8.00
2022-08-17T12:48:59.400Z,8.10
2022-08-17T12:51:29.219Z,7.50
2022-08-17T12:53:57.047Z,7.47
2022-08-17T12:56:24.410Z,7.13
2022-08-17T12:58:53.600Z,7.78
2022-08-17T13:01:23.454Z,7.78
2022-08-17T13:03:54.802Z,7.32
2022-08-17T13:06:35.772Z,7.60
2022-08-17T13:09:35.868Z,7.93
2022-08-17T13:12:08.529Z,7.72
2022-08-17T13:14:36.249Z,7.63
2022-08-17T13:17:09.907Z,8.10
2022-08-17T13:19:50.187Z,7.90
2022-08-17T13:22:23.541Z,7.00
2022-08-17T13:25:08.484Z,6.95
2022-08-17T13:27:35.951Z,7.35
2022-08-17T13:30:12.208Z,7.00
2022-08-17T13:32:48.691Z,7.05
2022-08-17T13:35:45.931Z,7.53
2022-08-17T13:38:45.812Z,7.03
2022-08-17T13:41:35.742Z,6.93
2022-08-17T13:44:23.370Z,6.97
2022-08-17T13:46:57.117Z,6.97
2022-08-17T13:49:24.741Z,6.40
2022-08-17T13:52:33.861Z,7.30
2022-08-17T13:55:06.925Z,7.30
2022-08-17T13:57:35.561Z,7.10
2022-08-17T14:00:30.658Z,7.55
2022-08-17T14:03:04.062Z,7.50
2022-08-17T14:05:33.801Z,7.88
2022-08-17T14:08:06.805Z,7.90
2022-08-17T14:10:36.503Z,7.72
2022-08-17T14:13:05.022Z,7.50
2022-08-17T14:15:55.792Z,7.88
2022-08-17T14:18:42.035Z,8.27
2022-08-17T14:21:08.530Z,7.75
2022-08-17T14:23:36.834Z,8.20
2022-08-17T14:26:05.635Z,8.20
2022-08-17T14:28:33.084Z,7.90
2022-08-17T14:31:03.688Z,7.43
2022-08-17T14:33:30.920Z,7.60
2022-08-17T14:35:58.298Z,7.57
2022-08-17T14:38:25.575Z,7.45
2022-08-17T14:40:53.516Z,7.70
2022-08-17T14:43:21.079Z,7.30
2022-08-17T14:45:48.338Z,7.78
2022-08-17T14:48:15.963Z,7.78
2022-08-17T14:50:44.316Z,7.65
2022-08-17T14:53:16.179Z,7.72
2022-08-17T14:55:47.206Z,7.90
2022-08-17T14:58:15.932Z,7.28
2022-08-17T15:00:43.751Z,7.30
2022-08-17T15:03:11.869Z,7.10
2022-08-17T15:05:40.143Z,7.05
2022-08-17T15:08:08.603Z,7.93
2022-08-17T15:10:37.053Z,8.23
2022-08-17T15:13:04.757Z,7.68
2022-08-17T15:15:32.095Z,7.57
2022-08-17T15:18:00.077Z,7.65
2022-08-17T15:20:30.371Z,8.10
2022-08-17T15:22:59.036Z,7.82
2022-08-17T15:25:32.382Z,7.82
2022-08-17T15:28:01.295Z,7.68
2022-08-17T15:30:30.015Z,7.55
2022-08-17T15:32:59.427Z,7.53
2022-08-17T15:35:32.726Z,7.65
2022-08-17T15:38:10.583Z,7.95
2022-08-17T15:40:44.055Z,7.03
2022-08-17T15:43:23.319Z,8.10
2022-08-17T15:46:01.969Z,7.80
2022-08-17T15:48:43.933Z,7.65
2022-08-17T15:51:28.251Z,7.78
2022-08-17T15:54:00.376Z,7.72
2022-08-17T15:56:32.178Z,7.53
2022-08-17T15:59:00.194Z,7.88
2022-08-17T16:03:01.824Z,7.72
2022-08-17T16:04:30.382Z,7.80
2022-08-17T16:06:59.758Z,7.57
2022-08-17T16:09:27.776Z,7.18
2022-08-17T16:11:56.140Z,7.38
2022-08-17T16:14:33.711Z,7.72
2022-08-17T16:17:04.662Z,8.18
2022-08-17T16:19:33.393Z,7.90
2022-08-17T16:22:01.077Z,7.55
2022-08-17T16:24:28.427Z,7.75
2022-08-17T16:26:55.901Z,8.10
2022-08-17T16:29:23.302Z,8.40
2022-08-17T16:31:51.433Z,8.40
2022-08-17T16:34:19.106Z,7.93
2022-08-17T16:36:53.581Z,7.90
2022-08-17T16:39:29.434Z,7.55
2022-08-17T16:41:57.559Z,7.85
2022-08-17T16:44:31.827Z,7.85
2022-08-17T16:47:01.370Z,7.78
2022-08-17T16:49:37.382Z,7.57
2022-08-17T16:52:10.697Z,7.55
2022-08-17T16:54:43.745Z,7.75
2022-08-17T16:57:13.268Z,7.78
2022-08-17T16:59:44.901Z,7.43
2022-08-17T17:02:17.302Z,8.05
2022-08-17T17:05:19.301Z,7.68
2022-08-17T17:08:08.962Z,8.10
2022-08-17T17:10:50.104Z,8.05
2022-08-17T17:13:26.776Z,7.80
2022-08-17T17:16:01.360Z,7.68
2022-08-17T17:18:42.729Z,8.75
2022-08-17T17:21:15.205Z,8.45
2022-08-17T17:23:59.770Z,8.15
2022-08-17T17:26:49.683Z,7.72
2022-08-17T17:29:48.817Z,8.25
2022-08-17T17:32:41.594Z,8.43
2022-08-17T17:35:17.567Z,8.40
2022-08-17T17:37:46.780Z,8.15
2022-08-17T17:40:24.584Z,8.63
2022-08-17T17:42:55.514Z,7.90
2022-08-17T17:45:36.110Z,8.70
2022-08-17T17:48:03.708Z,8.65
2022-08-17T17:50:43.942Z,9.00
2022-08-17T17:53:41.835Z,9.07
2022-08-17T17:56:43.743Z,9.07
2022-08-17T17:59:23.001Z,8.98
2022-08-17T18:01:59.950Z,9.10
2022-08-17T18:04:36.279Z,9.50
2022-08-17T18:07:23.903Z,9.00
2022-08-17T18:10:19.567Z,8.70
2022-08-17T18:13:22.025Z,9.05
2022-08-17T18:15:55.741Z,9.77
2022-08-17T18:18:38.801Z,9.52
2022-08-17T18:21:16.967Z,10.00
2022-08-17T18:24:07.627Z,9.93
2022-08-17T18:26:37.884Z,10.00
2022-08-17T18:29:22.593Z,9.30
2022-08-17T18:32:19.777Z,8.98
2022-08-17T18:34:51.976Z,9.45
2022-08-17T18:37:49.372Z,10.05
2022-08-17T18:40:19.814Z,10.48
2022-08-17T18:43:11.517Z,9.50
2022-08-17T18:45:51.335Z,9.60
2022-08-17T18:51:40.629Z,9.93
2022-08-17T18:54:25.469Z,10.45
2022-08-17T18:56:56.783Z,10.25
2022-08-17T18:59:45.384Z,10.65
2022-08-17T19:02:22.083Z,10.73
2022-08-17T19:05:13.653Z,10.25
2022-08-17T19:07:48.167Z,10.50
2022-08-17T19:10:46.354Z,10.98
2022-08-17T19:13:24.372Z,10.80
2022-08-17T19:16:15.002Z,10.27
2022-08-17T19:19:15.043Z,10.40
2022-08-17T19:22:13.713Z,11.30
2022-08-17T19:25:16.931Z,10.75
2022-08-17T19:28:01.798Z,10.52
2022-08-17T19:30:30.933Z,10.60
2022-08-17T19:32:58.517Z,10.63
2022-08-17T19:35:46.135Z,10.93
2022-08-17T19:38:34.938Z,10.82
2022-08-17T19:41:30.036Z,10.85
2022-08-17T19:44:01.511Z,10.23
2022-08-17T19:46:50.052Z,10.77
2022-08-17T19:49:52.127Z,10.13
2022-08-17T19:53:47.385Z,10.48
2022-08-17T19:56:25.389Z,10.45
2022-08-17T19:59:51.627Z,10.77
2022-08-17T20:02:26.503Z,9.82
2022-08-17T20:05:01.483Z,10.50
2022-08-17T20:08:00.996Z,10.57
2022-08-17T20:11:01.744Z,10.55
2022-08-17T20:13:50.535Z,10.30
2022-08-17T20:16:19.931Z,10.75
2022-08-17T20:19:01.825Z,10.80
2022-08-17T20:21:53.285Z,10.60
2022-08-17T20:24:35.865Z,10.35
2022-08-17T20:27:12.083Z,10.40
2022-08-17T20:30:00.706Z,10.38
2022-08-17T20:32:52.023Z,10.50
2022-08-17T20:35:33.305Z,9.93
2022-08-17T20:38:12.275Z,10.02
2022-08-17T20:41:04.079Z,9.88
2022-08-17T20:43:34.583Z,10.75
2022-08-17T20:46:38.410Z,10.93
2022-08-17T20:49:15.043Z,10.77
2022-08-17T20:52:09.922Z,10.57
2022-08-17T20:54:54.350Z,11.05
2022-08-17T20:57:36.751Z,10.57
2022-08-17T21:00:17.037Z,10.30
2022-08-17T21:02:52.349Z,10.68
2022-08-17T21:05:59.836Z,10.45
2022-08-17T21:08:36.464Z,10.40
2022-08-17T21:12:02.788Z,10.57
2022-08-17T21:14:34.424Z,10.32
2022-08-17T21:17:19.560Z,10.68
2022-08-17T21:20:12.222Z,10.63
2022-08-17T21:23:05.304Z,10.07
2022-08-17T21:25:51.614Z,10.07
2022-08-17T21:28:36.902Z,10.43
2022-08-17T21:31:41.037Z,10.55
2022-08-17T21:34:17.139Z,9.75
2022-08-17T21:36:46.253Z,10.38
2022-08-17T21:39:24.231Z,10.13
2022-08-17T21:42:00.740Z,10.60
2022-08-17T21:44:46.373Z,9.98
2022-08-17T21:47:24.688Z,10.10
2022-08-17T21:49:54.210Z,9.80
2022-08-17T21:52:24.939Z,9.95
2022-08-17T21:54:58.179Z,10.32
2022-08-17T21:57:27.843Z,10.32
2022-08-17T22:00:01.897Z,9.45
2022-08-17T22:02:35.653Z,9.55
2022-08-17T22:07:51.028Z,10.35
2022-08-17T22:10:41.151Z,10.10
2022-08-17T22:13:24.338Z,10.68
2022-08-17T22:16:28.648Z,10.43
2022-08-17T22:18:58.128Z,10.52
2022-08-17T22:21:26.264Z,10.50
2022-08-17T22:24:21.718Z,10.30
2022-08-17T22:26:59.808Z,10.90
2022-08-17T22:29:58.630Z,10.45
2022-08-17T22:32:32.125Z,10.30
2022-08-17T22:35:27.115Z,10.52
2022-08-17T22:37:55.217Z,10.10
2022-08-17T22:40:32.905Z,10.05
2022-08-17T22:43:03.624Z,10.18
2022-08-17T22:45:31.396Z,9.90
2022-08-17T22:48:02.236Z,10.05
2022-08-17T22:50:33.214Z,9.93
2022-08-17T22:53:35.214Z,10.63
2022-08-17T22:56:20.733Z,10.77
2022-08-17T22:59:14.297Z,10.00
2022-08-17T23:01:45.363Z,10.20
2022-08-17T23:04:36.589Z,10.20
2022-08-17T23:07:04.114Z,10.10
2022-08-17T23:09:31.400Z,10.05
2022-08-17T23:11:59.565Z,10.25
2022-08-17T23:14:31.918Z,10.10
2022-08-17T23:16:59.858Z,10.27
2022-08-17T23:19:28.610Z,10.25
2022-08-17T23:21:57.654Z,10.25
2022-08-17T23:24:32.014Z,11.10
2022-08-17T23:26:59.405Z,11.35
2022-08-17T23:29:29.459Z,11.88
2022-08-17T23:32:01.333Z,11.02
2022-08-17T23:34:29.359Z,11.40
2022-08-17T23:36:56.682Z,10.50
2022-08-17T23:39:27.818Z,11.10
2022-08-17T23:41:59.417Z,10.85
2022-08-17T23:44:27.414Z,10.98
2022-08-17T23:46:55.203Z,10.95
2022-08-17T23:49:23.546Z,10.65
2022-08-17T23:51:52.495Z,11.13
2022-08-17T23:54:33.721Z,10.48
2022-08-17T23:57:02.784Z,11.15
2022-08-17T23:59:30.062Z,10.18
